Time;durP1;ratioP1;P1;durP2;ratioP2;P2;SDS_P1;SDS_P2;PMS_P1;PMS_P2;Temp;Humidity;BMP_temperature;BMP_pressure;BME280_temperature;BME280_humidity;BME280_pressure;Samples;Min_cycle;Max_cycle;Signal;HPM_P1;HPM_P2
2021/03/13 00:00:15;;;;;;;7.10;2.25;;;8.80;99.90;;;;;;2096842;28;20047;-75
2021/03/13 00:01:16;;;;;;;5.75;2.00;;;8.80;99.90;;;;;;2096672;28;20031;-75
2021/03/13 00:02:17;;;;;;;8.32;1.90;;;8.80;99.90;;;;;;2096619;28;20016;-74
2021/03/13 00:03:18;;;;;;;5.85;1.75;;;8.80;99.90;;;;;;2096422;28;20016;-75
2021/03/13 00:04:18;;;;;;;6.97;2.50;;;8.80;99.90;;;;;;2097253;28;20114;-74
2021/03/13 00:05:27;;;;;;;12.50;2.17;;;8.80;99.90;;;;;;2097325;28;20418;-74
2021/03/13 00:06:28;;;;;;;9.95;2.17;;;8.80;99.90;;;;;;2097295;28;20067;-74
2021/03/13 00:07:28;;;;;;;5.40;1.85;;;8.80;99.90;;;;;;2096898;28;20031;-74
2021/03/13 00:08:30;;;;;;;5.30;2.45;;;8.80;99.90;;;;;;2096675;28;20025;-74
2021/03/13 00:09:30;;;;;;;5.43;2.20;;;8.80;99.90;;;;;;2096803;28;20464;-74
2021/03/13 00:10:32;;;;;;;8.48;2.25;;;8.80;99.90;;;;;;2096687;28;20032;-75
2021/03/13 00:11:32;;;;;;;6.82;1.88;;;8.80;99.90;;;;;;2096838;28;20036;-74
2021/03/13 00:12:33;;;;;;;12.35;2.38;;;8.70;99.90;;;;;;2097048;28;20099;-75
2021/03/13 00:13:34;;;;;;;8.40;2.45;;;8.70;99.90;;;;;;2096495;28;20044;-74
2021/03/13 00:14:34;;;;;;;8.48;2.45;;;8.70;99.90;;;;;;2096449;28;20024;-75
2021/03/13 00:15:37;;;;;;;14.50;3.22;;;8.70;99.90;;;;;;2096591;28;20028;-74
2021/03/13 00:16:37;;;;;;;6.75;2.13;;;8.70;99.90;;;;;;2096644;28;20055;-74
2021/03/13 00:17:38;;;;;;;12.30;2.95;;;8.70;99.90;;;;;;2096372;28;20017;-75
2021/03/13 00:18:38;;;;;;;7.35;2.22;;;8.70;99.90;;;;;;2097132;28;20032;-75
2021/03/13 00:19:39;;;;;;;9.55;2.50;;;8.80;99.90;;;;;;2097352;28;20029;-74
2021/03/13 00:20:42;;;;;;;10.52;2.63;;;8.80;99.90;;;;;;2097053;28;20025;-75
2021/03/13 00:21:43;;;;;;;8.15;2.42;;;8.70;99.90;;;;;;2097218;28;20067;-74
2021/03/13 00:22:44;;;;;;;8.95;2.28;;;8.80;99.90;;;;;;2097295;28;20631;-75
2021/03/13 00:23:44;;;;;;;7.95;1.85;;;8.70;99.90;;;;;;2096320;28;20028;-74
2021/03/13 00:24:45;;;;;;;8.85;2.08;;;8.80;99.90;;;;;;2096769;28;20493;-74
2021/03/13 00:25:46;;;;;;;8.07;2.22;;;8.80;99.90;;;;;;2097063;28;20037;-75
2021/03/13 00:26:46;;;;;;;9.75;2.10;;;8.80;99.90;;;;;;2096917;28;20121;-74
2021/03/13 00:27:47;;;;;;;11.30;2.53;;;8.80;99.90;;;;;;2096948;28;20032;-75
2021/03/13 00:28:48;;;;;;;13.52;2.60;;;8.80;99.90;;;;;;2096928;28;20542;-75
2021/03/13 00:29:48;;;;;;;12.45;2.53;;;8.80;99.90;;;;;;2096595;28;20054;-75
2021/03/13 00:30:49;;;;;;;7.78;2.15;;;8.80;99.90;;;;;;2096622;28;20059;-75
2021/03/13 00:31:53;;;;;;;8.23;2.55;;;8.80;99.90;;;;;;2096443;28;20074;-74
2021/03/13 00:32:59;;;;;;;10.57;2.78;;;8.90;99.90;;;;;;2096519;28;20117;-75
2021/03/13 00:34:00;;;;;;;9.98;2.47;;;8.80;99.90;;;;;;2097027;28;20027;-74
2021/03/13 00:35:00;;;;;;;10.30;2.55;;;8.80;99.90;;;;;;2097288;28;20463;-75
2021/03/13 00:36:02;;;;;;;10.85;2.40;;;8.80;99.90;;;;;;2096505;28;20058;-75
2021/03/13 00:37:02;;;;;;;8.88;2.63;;;8.80;99.90;;;;;;2096099;28;20059;-75
2021/03/13 00:38:04;;;;;;;9.85;2.70;;;8.80;99.90;;;;;;2097038;28;20027;-74
2021/03/13 00:39:05;;;;;;;7.68;2.22;;;8.80;99.90;;;;;;2096953;28;20024;-74
2021/03/13 00:40:09;;;;;;;13.65;3.58;;;8.80;99.90;;;;;;2097104;28;20025;-75
2021/03/13 00:41:09;;;;;;;6.13;1.80;;;8.80;99.90;;;;;;2096728;28;20031;-75
2021/03/13 00:42:10;;;;;;;10.18;2.78;;;8.80;99.90;;;;;;2097206;28;20031;-75
2021/03/13 00:43:13;;;;;;;9.23;2.33;;;8.80;99.90;;;;;;2096997;28;20016;-74
2021/03/13 00:44:14;;;;;;;10.40;3.20;;;8.80;99.90;;;;;;2096430;28;20025;-74
2021/03/13 00:45:17;;;;;;;10.23;2.83;;;8.80;99.90;;;;;;2096404;28;20103;-74
2021/03/13 00:46:18;;;;;;;9.88;2.47;;;8.80;99.90;;;;;;2096750;28;20021;-74
2021/03/13 00:47:18;;;;;;;9.77;2.60;;;8.80;99.90;;;;;;2096265;28;20372;-75
2021/03/13 00:48:19;;;;;;;12.18;2.60;;;8.80;99.90;;;;;;2097008;28;20021;-75
2021/03/13 00:49:19;;;;;;;10.30;2.25;;;8.80;99.90;;;;;;2096854;28;20533;-75
2021/03/13 00:50:24;;;;;;;7.18;1.80;;;8.80;99.90;;;;;;2096393;28;20115;-74
2021/03/13 00:51:25;;;;;;;6.20;2.10;;;8.80;99.90;;;;;;2096339;28;20074;-74
2021/03/13 00:52:26;;;;;;;9.55;2.40;;;8.80;99.90;;;;;;2097157;28;20077;-75
2021/03/13 00:53:27;;;;;;;6.57;2.38;;;8.80;99.90;;;;;;2096504;28;20021;-74
2021/03/13 00:54:28;;;;;;;5.70;2.00;;;8.80;99.90;;;;;;2088154;28;20021;-75
2021/03/13 00:55:30;;;;;;;8.75;2.53;;;8.80;99.90;;;;;;2096113;28;20028;-74
2021/03/13 00:56:31;;;;;;;10.32;2.42;;;8.80;99.90;;;;;;2096998;28;20021;-75
2021/03/13 00:57:32;;;;;;;10.98;2.78;;;8.80;99.90;;;;;;2096021;28;20391;-74
2021/03/13 00:58:32;;;;;;;12.45;2.20;;;8.80;99.90;;;;;;2096413;28;20514;-74
2021/03/13 00:59:33;;;;;;;8.18;2.28;;;8.80;99.90;;;;;;2096935;28;20035;-75
2021/03/13 01:00:34;;;;;;;15.48;3.25;;;8.80;99.90;;;;;;2097048;28;20414;-74
2021/03/13 01:01:34;;;;;;;14.13;2.53;;;8.80;99.90;;;;;;2097025;28;20028;-75
2021/03/13 01:02:35;;;;;;;11.98;2.63;;;8.80;99.90;;;;;;2096958;28;20028;-74
2021/03/13 01:03:36;;;;;;;8.70;2.00;;;8.80;99.90;;;;;;2096809;28;20028;-75
2021/03/13 01:04:36;;;;;;;11.60;2.70;;;8.80;99.90;;;;;;2096780;28;20497;-75
2021/03/13 01:05:37;;;;;;;11.48;2.72;;;8.70;99.90;;;;;;2096827;28;20107;-75
2021/03/13 01:06:38;;;;;;;11.88;2.70;;;8.80;99.90;;;;;;2096960;28;20111;-75
2021/03/13 01:07:39;;;;;;;6.68;2.38;;;8.80;99.90;;;;;;2096688;28;20502;-75
2021/03/13 01:08:40;;;;;;;9.88;2.50;;;8.80;99.90;;;;;;2097051;28;20027;-75
2021/03/13 01:09:41;;;;;;;14.27;2.97;;;8.80;99.90;;;;;;2096763;28;20027;-75
2021/03/13 01:10:42;;;;;;;8.48;2.28;;;8.80;99.90;;;;;;2096955;28;20475;-75
2021/03/13 01:11:43;;;;;;;7.50;2.30;;;8.80;99.90;;;;;;2096875;28;20499;-74
2021/03/13 01:12:44;;;;;;;9.13;2.47;;;8.80;99.90;;;;;;2097045;28;20028;-74
2021/03/13 01:13:44;;;;;;;7.35;1.95;;;8.80;99.90;;;;;;2096733;28;20133;-74
2021/03/13 01:14:45;;;;;;;9.23;2.53;;;8.80;99.90;;;;;;2096165;28;20082;-75
2021/03/13 01:15:46;;;;;;;6.63;2.33;;;8.80;99.90;;;;;;2096171;28;20048;-75
2021/03/13 01:16:47;;;;;;;8.88;2.10;;;8.80;99.90;;;;;;2096677;28;20570;-75
2021/03/13 01:17:48;;;;;;;6.32;1.80;;;8.80;99.90;;;;;;2096997;28;20024;-74
2021/03/13 01:18:48;;;;;;;9.50;2.00;;;8.80;99.90;;;;;;2096586;28;20029;-74
2021/03/13 01:19:49;;;;;;;9.32;2.70;;;8.80;99.90;;;;;;2096768;28;20434;-74
2021/03/13 01:20:51;;;;;;;10.15;2.40;;;8.80;99.90;;;;;;2096737;28;20529;-74
2021/03/13 01:21:52;;;;;;;14.20;3.00;;;8.80;99.90;;;;;;2096852;28;20032;-75
2021/03/13 01:22:53;;;;;;;12.80;3.03;;;8.80;99.90;;;;;;2096955;28;20025;-74
2021/03/13 01:23:54;;;;;;;11.70;2.55;;;8.80;99.90;;;;;;2096735;28;20028;-75
2021/03/13 01:24:54;;;;;;;10.10;2.50;;;8.80;99.90;;;;;;2096797;28;20452;-74
2021/03/13 01:25:55;;;;;;;7.70;2.13;;;8.90;99.90;;;;;;2096755;28;20021;-74
2021/03/13 01:26:55;;;;;;;6.57;2.30;;;8.80;99.90;;;;;;2096179;28;20028;-75
2021/03/13 01:27:56;;;;;;;12.45;3.42;;;8.90;99.90;;;;;;2096778;28;20020;-74
2021/03/13 01:28:57;;;;;;;8.75;2.75;;;8.90;99.90;;;;;;2096527;28;20056;-75
2021/03/13 01:29:57;;;;;;;11.27;3.10;;;8.80;99.90;;;;;;2096296;28;20035;-75
2021/03/13 01:30:58;;;;;;;9.43;2.30;;;8.80;99.90;;;;;;2096166;28;20027;-74
2021/03/13 01:32:03;;;;;;;7.93;2.15;;;8.90;99.90;;;;;;2096338;28;20020;-75
2021/03/13 01:33:03;;;;;;;8.98;2.45;;;8.90;99.90;;;;;;2096769;28;20017;-75
2021/03/13 01:34:04;;;;;;;8.25;2.30;;;8.90;99.90;;;;;;2096666;28;20025;-74
2021/03/13 01:35:06;;;;;;;7.22;2.63;;;8.90;99.90;;;;;;2096101;28;20021;-74
2021/03/13 01:36:07;;;;;;;7.45;2.38;;;8.80;99.90;;;;;;2096163;28;20021;-75
2021/03/13 01:37:07;;;;;;;9.00;2.22;;;8.90;99.90;;;;;;2096300;28;20024;-74
2021/03/13 01:38:08;;;;;;;6.40;2.42;;;8.90;99.90;;;;;;2096836;28;20460;-75
2021/03/13 01:39:09;;;;;;;7.45;2.40;;;8.80;99.90;;;;;;2096772;28;20024;-74
2021/03/13 01:40:15;;;;;;;6.60;2.47;;;8.90;99.90;;;;;;2096867;28;20062;-75
2021/03/13 01:41:16;;;;;;;5.30;2.42;;;8.90;99.90;;;;;;2096645;28;20103;-75
2021/03/13 01:42:16;;;;;;;4.85;2.28;;;8.90;99.90;;;;;;2096525;28;20017;-75
2021/03/13 01:43:17;;;;;;;5.97;2.17;;;8.80;99.90;;;;;;2096061;28;20016;-75
2021/03/13 01:44:18;;;;;;;6.10;2.15;;;8.90;99.90;;;;;;2096100;28;20593;-74
2021/03/13 01:45:23;;;;;;;4.35;2.00;;;8.90;99.90;;;;;;2096198;28;20099;-74
2021/03/13 01:46:24;;;;;;;5.35;2.78;;;8.90;99.90;;;;;;2096770;28;20016;-75
2021/03/13 01:47:28;;;;;;;5.75;2.08;;;8.90;99.90;;;;;;2096225;28;20033;-74
2021/03/13 01:48:32;;;;;;;6.22;2.20;;;8.90;99.90;;;;;;2096615;28;20475;-75
2021/03/13 01:49:35;;;;;;;9.15;2.80;;;8.80;99.90;;;;;;2096621;28;20071;-75
2021/03/13 01:50:36;;;;;;;4.60;2.15;;;8.80;99.90;;;;;;2096928;28;20104;-74
2021/03/13 01:51:37;;;;;;;6.20;3.25;;;8.90;99.90;;;;;;2096528;28;20632;-74
2021/03/13 01:52:38;;;;;;;6.93;1.90;;;8.80;99.90;;;;;;2096616;28;20052;-74
2021/03/13 01:53:38;;;;;;;9.00;2.70;;;8.90;99.90;;;;;;2096643;28;20356;-74
2021/03/13 01:54:39;;;;;;;6.55;2.00;;;8.80;99.90;;;;;;2096735;28;20024;-74
2021/03/13 01:55:40;;;;;;;5.40;2.05;;;8.80;99.90;;;;;;2096321;28;20078;-75
2021/03/13 01:56:42;;;;;;;4.25;2.15;;;8.80;99.90;;;;;;2095800;28;20082;-75
2021/03/13 01:57:43;;;;;;;7.45;1.92;;;8.80;99.90;;;;;;2095687;28;20031;-74
2021/03/13 01:58:44;;;;;;;7.20;2.25;;;8.80;99.90;;;;;;2096571;28;20021;-76
2021/03/13 01:59:46;;;;;;;5.65;2.20;;;8.80;99.90;;;;;;2096004;28;20107;-75
2021/03/13 02:00:47;;;;;;;5.45;2.47;;;8.80;99.90;;;;;;2096212;28;20469;-75
2021/03/13 02:01:48;;;;;;;6.82;2.20;;;8.80;99.90;;;;;;2096343;28;20032;-74
2021/03/13 02:02:49;;;;;;;8.20;2.58;;;8.80;99.90;;;;;;2095450;28;20079;-75
2021/03/13 02:03:49;;;;;;;7.32;2.17;;;8.80;99.90;;;;;;2095654;28;20407;-74
2021/03/13 02:04:50;;;;;;;12.23;2.35;;;8.80;99.90;;;;;;2096599;28;20035;-74
2021/03/13 02:05:51;;;;;;;6.65;2.30;;;8.80;99.90;;;;;;2096925;28;20031;-74
2021/03/13 02:07:07;;;;;;;6.82;2.25;;;8.80;99.90;;;;;;2096230;28;20094;-74
2021/03/13 02:08:35;;;;;;;6.90;2.30;;;8.70;99.90;;;;;;2096550;28;20636;-74
2021/03/13 02:09:45;;;;;;;6.38;2.53;;;8.70;99.90;;;;;;2096595;28;20089;-75
2021/03/13 02:11:38;;;;;;;5.78;1.98;;;8.70;99.90;;;;;;2096025;28;20368;-74
2021/03/13 02:13:01;;;;;;;4.30;1.98;;;8.70;99.90;;;;;;2102643;28;20433;-75
2021/03/13 02:14:17;;;;;;;7.68;2.85;;;8.60;99.90;;;;;;2096639;28;20023;-74
2021/03/13 02:15:29;;;;;;;7.03;2.85;;;8.60;99.90;;;;;;2096075;28;20024;-74
2021/03/13 02:17:05;;;;;;;6.78;3.13;;;8.60;99.90;;;;;;2093386;28;20031;-74
2021/03/13 02:18:37;;;;;;;6.15;2.60;;;8.60;99.90;;;;;;2091641;28;20039;-74
2021/03/13 02:20:11;;;;;;;5.13;2.55;;;8.60;99.90;;;;;;2096258;28;20017;-75
2021/03/13 02:21:15;;;;;;;5.18;2.63;;;8.50;99.90;;;;;;2096626;28;20047;-75
2021/03/13 02:22:18;;;;;;;7.60;2.45;;;8.50;99.90;;;;;;2096494;28;20387;-74
2021/03/13 02:23:20;;;;;;;8.73;3.00;;;8.50;99.90;;;;;;2095829;28;20487;-74
2021/03/13 02:24:27;;;;;;;7.20;2.95;;;8.50;99.90;;;;;;2096019;28;20483;-74
2021/03/13 02:25:59;;;;;;;4.50;2.78;;;8.60;99.90;;;;;;2096531;28;20138;-74
2021/03/13 02:27:22;;;;;;;7.20;2.88;;;8.50;99.90;;;;;;2096120;28;20528;-74
2021/03/13 02:28:46;;;;;;;5.97;2.70;;;8.50;99.90;;;;;;2096640;28;20028;-74
2021/03/13 02:30:11;;;;;;;4.85;3.42;;;8.50;99.90;;;;;;2096065;28;20040;-74
2021/03/13 02:31:13;;;;;;;5.03;2.92;;;8.50;99.90;;;;;;2090892;28;20017;-75
2021/03/13 02:32:49;;;;;;;7.03;3.08;;;8.50;99.90;;;;;;2095921;28;20016;-74
2021/03/13 02:33:55;;;;;;;4.05;2.42;;;8.50;99.90;;;;;;2095249;28;20036;-74
2021/03/13 02:35:06;;;;;;;5.82;2.90;;;8.50;99.90;;;;;;2095452;28;20021;-74
2021/03/13 02:36:14;;;;;;;6.38;3.03;;;8.50;99.90;;;;;;2096650;28;20383;-75
2021/03/13 02:37:21;;;;;;;4.60;2.78;;;8.50;99.90;;;;;;2096006;28;20035;-74
2021/03/13 02:38:37;;;;;;;4.85;3.08;;;8.50;99.90;;;;;;2096571;28;20027;-74
2021/03/13 02:39:40;;;;;;;10.02;3.10;;;8.50;99.90;;;;;;2096596;28;20114;-75
2021/03/13 02:40:45;;;;;;;3.33;2.75;;;8.50;99.90;;;;;;2096135;28;20629;-75
2021/03/13 02:41:52;;;;;;;6.75;2.60;;;8.50;99.90;;;;;;2096394;28;20103;-74
2021/03/13 02:42:59;;;;;;;5.50;3.13;;;8.50;99.90;;;;;;2096553;28;20034;-75
2021/03/13 02:44:03;;;;;;;6.40;2.75;;;8.50;99.90;;;;;;2096452;28;20414;-74
2021/03/13 02:45:06;;;;;;;5.07;2.50;;;8.50;99.90;;;;;;2097256;28;20048;-75
2021/03/13 02:46:08;;;;;;;4.50;3.13;;;8.50;99.90;;;;;;2097300;28;20031;-75
2021/03/13 02:47:10;;;;;;;4.50;2.67;;;8.50;99.90;;;;;;2096925;28;20025;-74
2021/03/13 02:48:15;;;;;;;5.43;3.00;;;8.50;99.90;;;;;;2097238;28;20096;-75
2021/03/13 02:49:19;;;;;;;4.85;2.65;;;8.50;99.90;;;;;;2097934;28;20025;-74
2021/03/13 02:50:19;;;;;;;3.78;2.45;;;8.40;99.90;;;;;;2097462;28;20028;-75
2021/03/13 02:51:26;;;;;;;5.78;3.03;;;8.40;99.90;;;;;;2097314;28;20036;-74
2021/03/13 02:52:27;;;;;;;3.63;2.70;;;8.40;99.90;;;;;;2097904;28;20477;-75
2021/03/13 02:53:30;;;;;;;4.88;2.75;;;8.40;99.90;;;;;;2097912;28;20036;-75
2021/03/13 02:54:33;;;;;;;4.97;2.75;;;8.40;99.90;;;;;;2098014;28;20025;-74
2021/03/13 02:55:34;;;;;;;4.13;2.42;;;8.40;99.90;;;;;;2097676;28;20564;-74
2021/03/13 02:56:36;;;;;;;3.95;2.40;;;8.40;99.90;;;;;;2097600;28;20024;-75
2021/03/13 02:57:38;;;;;;;4.13;2.13;;;8.40;99.90;;;;;;2097265;28;20364;-75
2021/03/13 02:58:40;;;;;;;5.75;2.20;;;8.50;99.90;;;;;;2097082;28;20078;-74
2021/03/13 02:59:43;;;;;;;4.30;2.67;;;8.40;99.90;;;;;;2096925;28;20517;-75
2021/03/13 03:00:45;;;;;;;7.22;2.78;;;8.50;99.90;;;;;;2097641;28;20059;-75
2021/03/13 03:01:48;;;;;;;4.72;2.55;;;8.40;99.90;;;;;;2098433;28;20414;-75
2021/03/13 03:02:53;;;;;;;2.80;2.30;;;8.40;99.90;;;;;;2098054;28;20047;-74
2021/03/13 03:03:55;;;;;;;4.78;2.50;;;8.40;99.90;;;;;;2098479;28;20533;-74
2021/03/13 03:04:57;;;;;;;5.03;2.30;;;8.40;99.90;;;;;;2098561;28;20025;-75
2021/03/13 03:05:58;;;;;;;5.65;2.67;;;8.40;99.90;;;;;;2098706;28;20028;-75
2021/03/13 03:07:02;;;;;;;4.20;2.50;;;8.40;99.90;;;;;;2098277;28;20081;-75
2021/03/13 03:08:05;;;;;;;3.35;2.22;;;8.40;99.90;;;;;;2098500;28;20480;-75
2021/03/13 03:09:07;;;;;;;4.13;2.47;;;8.40;99.90;;;;;;2098657;28;20024;-74
2021/03/13 03:10:09;;;;;;;4.40;2.50;;;8.50;99.90;;;;;;2098736;28;20218;-75
2021/03/13 03:11:10;;;;;;;5.57;2.35;;;8.40;99.90;;;;;;2098661;28;20052;-75
2021/03/13 03:12:12;;;;;;;4.07;2.28;;;8.40;99.90;;;;;;2098637;28;20464;-74
2021/03/13 03:13:13;;;;;;;3.10;1.98;;;8.40;99.90;;;;;;2098666;28;20036;-74
2021/03/13 03:14:16;;;;;;;2.80;2.00;;;8.40;99.90;;;;;;2098216;28;20370;-75
2021/03/13 03:15:22;;;;;;;3.08;1.92;;;8.40;99.90;;;;;;2097784;28;20024;-74
2021/03/13 03:16:24;;;;;;;4.32;2.40;;;8.40;99.90;;;;;;2098123;28;20333;-75
2021/03/13 03:17:27;;;;;;;3.13;2.17;;;8.40;99.90;;;;;;2097423;28;20102;-75
2021/03/13 03:18:28;;;;;;;3.45;2.15;;;8.40;99.90;;;;;;2097358;28;20495;-74
2021/03/13 03:19:29;;;;;;;3.95;1.83;;;8.40;99.90;;;;;;2097761;28;20102;-74
2021/03/13 03:20:34;;;;;;;3.53;1.70;;;8.40;99.90;;;;;;2098611;28;20036;-75
2021/03/13 03:21:35;;;;;;;6.32;2.22;;;8.40;99.90;;;;;;2098629;28;20029;-75
2021/03/13 03:22:37;;;;;;;2.33;2.10;;;8.40;99.90;;;;;;2098222;28;20485;-75
2021/03/13 03:23:39;;;;;;;3.08;2.00;;;8.40;99.90;;;;;;2098263;28;20635;-75
2021/03/13 03:24:42;;;;;;;4.78;1.90;;;8.40;99.90;;;;;;2097888;28;20025;-75
2021/03/13 03:25:42;;;;;;;3.90;1.85;;;8.40;99.90;;;;;;2097767;28;20471;-75
2021/03/13 03:26:43;;;;;;;4.25;2.28;;;8.40;99.90;;;;;;2098249;28;20079;-75
2021/03/13 03:27:50;;;;;;;3.88;2.03;;;8.30;99.90;;;;;;2097559;28;20060;-75
2021/03/13 03:28:50;;;;;;;1.45;1.35;;;8.30;99.90;;;;;;2097913;28;20025;-75
2021/03/13 03:29:51;;;;;;;2.55;1.50;;;8.30;99.90;;;;;;2098431;28;20099;-74
2021/03/13 03:30:54;;;;;;;2.78;1.83;;;8.30;99.90;;;;;;2097739;28;20028;-75
2021/03/13 03:31:54;;;;;;;2.75;1.70;;;8.30;99.90;;;;;;2097861;28;20026;-75
2021/03/13 03:32:56;;;;;;;4.53;1.88;;;8.30;99.90;;;;;;2098366;28;20025;-75
2021/03/13 03:33:57;;;;;;;4.70;2.00;;;8.30;99.90;;;;;;2098218;28;20422;-74
2021/03/13 03:34:58;;;;;;;5.80;1.88;;;8.30;99.90;;;;;;2097737;28;20024;-75
2021/03/13 03:35:59;;;;;;;3.30;1.90;;;8.30;99.90;;;;;;2097526;28;20028;-75
2021/03/13 03:36:59;;;;;;;3.75;1.42;;;8.30;99.90;;;;;;2098198;28;20035;-75
2021/03/13 03:38:01;;;;;;;3.00;1.73;;;8.30;99.90;;;;;;2098109;28;20032;-75
2021/03/13 03:39:02;;;;;;;3.78;1.95;;;8.40;99.90;;;;;;2098087;28;20028;-75
2021/03/13 03:40:05;;;;;;;4.63;1.70;;;8.30;99.90;;;;;;2098125;28;20028;-75
2021/03/13 03:41:05;;;;;;;4.97;2.00;;;8.40;99.90;;;;;;2098366;28;20021;-75
2021/03/13 03:42:07;;;;;;;3.08;2.00;;;8.30;99.90;;;;;;2098337;28;20021;-75
2021/03/13 03:43:32;;;;;;;3.35;2.08;;;8.30;99.90;;;;;;2098275;28;20032;-75
2021/03/13 03:44:46;;;;;;;3.55;1.90;;;8.30;99.90;;;;;;2098314;28;20094;-75
2021/03/13 03:45:53;;;;;;;8.18;1.75;;;8.30;99.90;;;;;;2098319;28;20024;-75
2021/03/13 03:46:57;;;;;;;4.70;1.88;;;8.30;99.90;;;;;;2097077;28;20021;-75
2021/03/13 03:48:04;;;;;;;3.35;1.85;;;8.30;99.90;;;;;;2097536;28;20029;-74
2021/03/13 03:49:05;;;;;;;4.97;1.90;;;8.30;99.90;;;;;;2098111;28;20107;-75
2021/03/13 03:50:06;;;;;;;3.47;1.73;;;8.30;99.90;;;;;;2097454;28;20020;-75
2021/03/13 03:51:13;;;;;;;2.38;1.90;;;8.30;99.90;;;;;;2097744;28;20020;-74
2021/03/13 03:52:16;;;;;;;3.28;1.98;;;8.30;99.90;;;;;;2098184;28;20059;-75
2021/03/13 03:53:27;;;;;;;3.88;1.60;;;8.20;99.90;;;;;;2098166;28;20379;-74
2021/03/13 03:54:29;;;;;;;3.38;1.90;;;8.30;99.90;;;;;;2098091;28;20032;-75
2021/03/13 03:55:31;;;;;;;2.47;1.50;;;8.20;99.90;;;;;;2097742;28;20021;-74
2021/03/13 03:56:32;;;;;;;1.52;1.42;;;8.30;99.90;;;;;;2098063;28;20017;-75
2021/03/13 03:57:33;;;;;;;3.70;1.45;;;8.30;99.90;;;;;;2097579;28;20556;-75
2021/03/13 03:58:39;;;;;;;1.73;1.40;;;8.30;99.90;;;;;;2096801;28;20029;-75
2021/03/13 03:59:43;;;;;;;2.63;1.75;;;8.30;99.90;;;;;;2097383;28;20138;-75
2021/03/13 04:00:44;;;;;;;2.25;1.63;;;8.30;99.90;;;;;;2097798;28;20052;-74
2021/03/13 04:01:54;;;;;;;2.42;1.63;;;8.30;99.90;;;;;;2097112;28;20111;-75
2021/03/13 04:02:56;;;;;;;3.42;1.50;;;8.30;99.90;;;;;;2097204;28;20025;-74
2021/03/13 04:03:59;;;;;;;1.88;1.67;;;8.30;99.90;;;;;;2097582;28;20025;-74
2021/03/13 04:05:00;;;;;;;2.33;1.50;;;8.30;99.90;;;;;;2097635;28;20483;-75
2021/03/13 04:06:01;;;;;;;2.35;1.63;;;8.30;99.90;;;;;;2096913;28;20021;-75
2021/03/13 04:07:03;;;;;;;5.53;1.80;;;8.20;99.90;;;;;;2096557;28;20043;-75
2021/03/13 04:08:06;;;;;;;4.20;1.63;;;8.30;99.90;;;;;;2097377;28;20052;-75
2021/03/13 04:09:07;;;;;;;2.25;1.50;;;8.20;99.90;;;;;;2096817;28;20025;-75
2021/03/13 04:10:10;;;;;;;1.95;1.63;;;8.30;99.90;;;;;;2097047;28;20495;-75
2021/03/13 04:11:16;;;;;;;3.78;1.70;;;8.30;99.90;;;;;;2096949;28;20016;-75
2021/03/13 04:12:19;;;;;;;3.22;1.98;;;8.30;99.90;;;;;;2096672;28;20415;-74
2021/03/13 04:13:22;;;;;;;4.82;1.60;;;8.30;99.90;;;;;;2096854;28;20047;-75
2021/03/13 04:14:24;;;;;;;3.63;1.50;;;8.30;99.90;;;;;;2097481;28;20036;-75
2021/03/13 04:15:24;;;;;;;2.45;1.27;;;8.30;99.90;;;;;;2096734;28;20277;-74
2021/03/13 04:16:30;;;;;;;3.55;1.70;;;8.30;99.90;;;;;;2096621;28;20464;-75
2021/03/13 04:17:32;;;;;;;1.48;1.38;;;8.30;99.90;;;;;;2096323;28;20020;-75
2021/03/13 04:18:33;;;;;;;1.35;1.23;;;8.30;99.90;;;;;;2096648;28;20021;-75
2021/03/13 04:19:34;;;;;;;2.72;1.20;;;8.30;99.90;;;;;;2097300;28;20017;-75
2021/03/13 04:20:37;;;;;;;1.67;1.15;;;8.30;99.90;;;;;;2096889;28;20029;-75
2021/03/13 04:21:38;;;;;;;3.35;1.40;;;8.30;99.90;;;;;;2097367;28;20033;-75
2021/03/13 04:22:40;;;;;;;1.15;1.05;;;8.30;99.90;;;;;;2097295;28;20593;-74
2021/03/13 04:23:44;;;;;;;2.75;1.15;;;8.30;99.90;;;;;;2097090;28;20478;-75
2021/03/13 04:24:46;;;;;;;4.15;1.50;;;8.30;99.90;;;;;;2096878;28;20110;-75
2021/03/13 04:25:53;;;;;;;1.58;1.20;;;8.30;99.90;;;;;;2096937;28;20086;-74
2021/03/13 04:26:54;;;;;;;2.33;1.15;;;8.30;99.90;;;;;;2096835;28;20050;-75
2021/03/13 04:27:55;;;;;;;1.85;1.45;;;8.30;99.90;;;;;;2096952;28;20467;-75
2021/03/13 04:28:56;;;;;;;2.90;1.35;;;8.30;99.90;;;;;;2097071;28;20032;-75
2021/03/13 04:29:57;;;;;;;2.75;1.35;;;8.30;99.90;;;;;;2097231;28;20031;-75
2021/03/13 04:30:58;;;;;;;2.28;1.20;;;8.30;99.90;;;;;;2097349;28;20020;-75
2021/03/13 04:32:01;;;;;;;1.95;1.33;;;8.30;99.90;;;;;;2096164;28;20024;-74
2021/03/13 04:33:03;;;;;;;2.63;1.30;;;8.30;99.90;;;;;;2096749;28;20051;-75
2021/03/13 04:34:05;;;;;;;1.15;1.05;;;8.30;99.90;;;;;;2096928;28;20025;-75
2021/03/13 04:35:06;;;;;;;2.13;0.98;;;8.30;99.90;;;;;;2097347;28;20020;-75
2021/03/13 04:36:08;;;;;;;1.27;0.90;;;8.30;99.90;;;;;;2097098;28;20070;-75
2021/03/13 04:37:10;;;;;;;2.35;0.90;;;8.30;99.90;;;;;;2096807;28;20027;-75
2021/03/13 04:38:12;;;;;;;1.17;0.82;;;8.30;99.90;;;;;;2096248;28;20700;-75
2021/03/13 04:39:15;;;;;;;1.80;1.00;;;8.30;99.90;;;;;;2096651;28;20513;-75
2021/03/13 04:40:17;;;;;;;1.63;0.90;;;8.30;99.90;;;;;;2097205;28;20024;-74
2021/03/13 04:41:17;;;;;;;1.88;0.95;;;8.30;99.90;;;;;;2097192;28;20031;-75
2021/03/13 04:42:18;;;;;;;2.65;1.17;;;8.30;99.90;;;;;;2096907;28;20356;-75
2021/03/13 04:43:21;;;;;;;1.33;0.82;;;8.30;99.90;;;;;;2097090;28;20024;-75
2021/03/13 04:44:23;;;;;;;2.00;1.00;;;8.30;99.90;;;;;;2096537;28;20042;-75
2021/03/13 04:45:24;;;;;;;2.40;1.10;;;8.30;99.90;;;;;;2096480;28;20662;-75
2021/03/13 04:46:25;;;;;;;1.38;1.17;;;8.30;99.90;;;;;;2088356;28;20052;-74
2021/03/13 04:47:26;;;;;;;3.15;0.93;;;8.30;99.90;;;;;;2096170;28;20024;-75
2021/03/13 04:48:29;;;;;;;2.25;0.88;;;8.30;99.90;;;;;;2096851;28;20078;-74
2021/03/13 04:49:29;;;;;;;0.82;0.80;;;8.30;99.90;;;;;;2096102;28;20035;-74
2021/03/13 04:50:30;;;;;;;1.92;1.00;;;8.30;99.90;;;;;;2096488;28;20041;-74
2021/03/13 04:51:31;;;;;;;2.15;1.05;;;8.30;99.90;;;;;;2096496;28;20021;-75
2021/03/13 04:52:32;;;;;;;2.65;1.20;;;8.30;99.90;;;;;;2088106;28;20104;-75
2021/03/13 04:53:33;;;;;;;2.15;0.85;;;8.30;99.90;;;;;;2096207;28;20103;-75
2021/03/13 04:54:33;;;;;;;2.67;0.75;;;8.30;99.90;;;;;;2097035;28;20059;-74
2021/03/13 04:55:34;;;;;;;1.42;0.90;;;8.30;99.90;;;;;;2097117;28;20465;-75
2021/03/13 04:56:36;;;;;;;3.70;0.95;;;8.30;99.90;;;;;;2096864;28;20048;-75
2021/03/13 04:57:37;;;;;;;2.97;1.05;;;8.30;99.90;;;;;;2097628;28;20016;-75
2021/03/13 04:58:38;;;;;;;1.63;0.80;;;8.30;99.90;;;;;;2096202;28;20020;-75
2021/03/13 04:59:38;;;;;;;2.25;0.75;;;8.30;99.90;;;;;;2096567;28;20067;-75
2021/03/13 05:00:39;;;;;;;1.85;0.80;;;8.30;99.90;;;;;;2096929;28;20027;-74
2021/03/13 05:01:40;;;;;;;0.98;0.70;;;8.30;99.90;;;;;;2097189;28;20017;-75
2021/03/13 05:02:40;;;;;;;1.52;1.10;;;8.30;99.90;;;;;;2096908;28;20032;-75
2021/03/13 05:03:41;;;;;;;1.92;0.70;;;8.30;99.90;;;;;;2096952;28;20459;-75
2021/03/13 05:04:42;;;;;;;4.05;0.80;;;8.30;99.90;;;;;;2096362;28;20112;-75
2021/03/13 05:05:42;;;;;;;3.00;0.90;;;8.30;99.90;;;;;;2096543;28;20032;-75
2021/03/13 05:06:43;;;;;;;0.90;0.65;;;8.30;99.90;;;;;;2096424;28;20036;-75
2021/03/13 05:07:43;;;;;;;3.15;0.90;;;8.30;99.90;;;;;;2095802;28;20099;-75
2021/03/13 05:08:44;;;;;;;1.33;0.90;;;8.30;99.90;;;;;;2096049;28;20070;-74
2021/03/13 05:09:44;;;;;;;1.52;0.90;;;8.30;99.90;;;;;;2095985;28;20582;-75
2021/03/13 05:10:45;;;;;;;0.82;0.50;;;8.30;99.90;;;;;;2096481;28;20013;-75
2021/03/13 05:11:46;;;;;;;2.50;1.15;;;8.30;99.90;;;;;;2097080;28;20078;-75
2021/03/13 05:12:48;;;;;;;2.03;0.90;;;8.30;99.90;;;;;;2097028;28;20028;-75
2021/03/13 05:13:48;;;;;;;1.40;0.80;;;8.30;99.90;;;;;;2096954;28;20036;-75
2021/03/13 05:14:49;;;;;;;1.77;0.70;;;8.30;99.90;;;;;;2097145;28;20060;-75
2021/03/13 05:15:49;;;;;;;1.77;0.70;;;8.30;99.90;;;;;;2096294;28;20048;-75
2021/03/13 05:16:50;;;;;;;1.60;0.75;;;8.30;99.90;;;;;;2087251;28;20025;-75
2021/03/13 05:17:51;;;;;;;0.75;0.68;;;8.30;99.90;;;;;;2096344;28;20039;-75
2021/03/13 05:18:51;;;;;;;0.82;0.60;;;8.30;99.90;;;;;;2096617;28;20597;-75
2021/03/13 05:19:52;;;;;;;1.02;0.75;;;8.30;99.90;;;;;;2096069;28;20165;-75
2021/03/13 05:20:53;;;;;;;1.58;0.73;;;8.30;99.90;;;;;;2096966;28;20384;-75
2021/03/13 05:21:54;;;;;;;0.50;0.50;;;8.40;99.90;;;;;;2096985;28;20478;-75
2021/03/13 05:22:55;;;;;;;1.13;0.50;;;8.30;99.90;;;;;;2097007;28;20104;-75
2021/03/13 05:23:55;;;;;;;1.83;0.70;;;8.40;99.90;;;;;;2096304;28;20025;-75
2021/03/13 05:24:56;;;;;;;2.45;0.68;;;8.40;99.90;;;;;;2096843;28;20035;-75
2021/03/13 05:25:56;;;;;;;2.60;1.00;;;8.40;99.90;;;;;;2097078;28;20032;-75
2021/03/13 05:26:58;;;;;;;1.88;0.73;;;8.40;99.90;;;;;;2096577;28;20104;-75
2021/03/13 05:27:58;;;;;;;1.35;0.80;;;8.40;99.90;;;;;;2096169;28;20031;-75
2021/03/13 05:28:59;;;;;;;1.20;0.50;;;8.40;99.90;;;;;;2096139;28;20043;-74
2021/03/13 05:30:00;;;;;;;16.45;1.13;;;8.40;99.90;;;;;;2096752;28;20016;-75
2021/03/13 05:31:00;;;;;;;1.52;0.80;;;8.40;99.90;;;;;;2097101;28;20515;-75
2021/03/13 05:32:01;;;;;;;0.88;0.60;;;8.40;99.90;;;;;;2096819;28;20142;-75